createdAt,value
2019-05-13T00:02:27.661Z,8.30
2019-05-13T00:04:56.261Z,9.75
2019-05-13T00:07:24.877Z,11.55
2019-05-13T00:09:54.346Z,13.05
2019-05-13T00:12:23.987Z,9.23
2019-05-13T00:14:51.061Z,9.68
2019-05-13T00:17:19.694Z,12.30
2019-05-13T00:19:48.344Z,9.90
2019-05-13T00:22:17.009Z,11.48
2019-05-13T00:24:45.692Z,12.68
2019-05-13T00:27:14.324Z,10.40
2019-05-13T00:29:44.410Z,7.55
2019-05-13T00:32:13.476Z,11.22
2019-05-13T00:34:40.770Z,7.15
2019-05-13T00:37:11.789Z,9.55
2019-05-13T00:39:38.030Z,9.83
2019-05-13T00:42:06.704Z,6.87
2019-05-13T00:44:35.288Z,7.90
2019-05-13T00:47:04.835Z,6.20
2019-05-13T00:49:34.578Z,7.20
2019-05-13T00:52:03.861Z,5.58
2019-05-13T00:54:30.824Z,6.08
2019-05-13T00:56:59.492Z,6.92
2019-05-13T00:59:28.408Z,7.37
2019-05-13T01:01:57.000Z,8.25
2019-05-13T01:04:25.667Z,6.45
2019-05-13T01:06:54.406Z,6.60
2019-05-13T01:09:23.747Z,7.92
2019-05-13T01:11:53.748Z,8.50
2019-05-13T01:14:20.424Z,9.55
2019-05-13T01:16:49.067Z,6.60
2019-05-13T01:19:17.676Z,6.78
2019-05-13T01:21:46.250Z,6.85
2019-05-13T01:24:14.900Z,6.78
2019-05-13T01:26:43.938Z,6.15
2019-05-13T01:29:13.465Z,10.43
2019-05-13T01:31:43.242Z,11.88
2019-05-13T01:34:09.549Z,11.30
2019-05-13T01:36:38.163Z,10.85
2019-05-13T01:39:07.510Z,10.80
2019-05-13T01:41:36.330Z,8.00
2019-05-13T01:44:04.914Z,9.43
2019-05-13T01:46:34.664Z,9.38
2019-05-13T01:49:04.797Z,9.70
2019-05-13T01:51:33.316Z,9.78
2019-05-13T01:53:59.910Z,8.18
2019-05-13T01:56:28.577Z,5.95
2019-05-13T01:58:57.774Z,6.60
2019-05-13T02:01:26.334Z,7.95
2019-05-13T02:03:54.942Z,9.15
2019-05-13T02:06:24.106Z,7.87
2019-05-13T02:08:54.332Z,6.95
2019-05-13T02:11:23.906Z,8.30
2019-05-13T02:13:53.889Z,8.40
2019-05-13T02:16:20.172Z,8.43
2019-05-13T02:18:49.420Z,6.17
2019-05-13T02:21:17.971Z,8.13
2019-05-13T02:23:46.598Z,5.40
2019-05-13T02:26:15.181Z,7.22
2019-05-13T02:28:43.789Z,5.47
2019-05-13T02:31:18.805Z,7.10
2019-05-13T02:33:42.397Z,9.05
2019-05-13T02:36:13.210Z,5.92
2019-05-13T02:38:38.695Z,6.37
2019-05-13T02:41:07.203Z,7.85
2019-05-13T02:43:36.023Z,6.35
2019-05-13T02:46:05.079Z,6.70
2019-05-13T02:48:33.627Z,6.92
2019-05-13T02:51:03.695Z,6.58
2019-05-13T02:53:33.522Z,7.83
2019-05-13T02:56:02.661Z,9.38
2019-05-13T02:58:27.922Z,9.55
2019-05-13T03:00:56.524Z,8.85
2019-05-13T03:03:25.074Z,7.33
2019-05-13T03:05:53.918Z,8.13
2019-05-13T03:08:35.220Z,9.43
2019-05-13T03:10:53.224Z,11.38
2019-05-13T03:13:22.958Z,8.70
2019-05-13T03:15:52.452Z,9.88
2019-05-13T03:18:22.557Z,8.45
2019-05-13T03:20:52.647Z,8.78
2019-05-13T03:23:18.381Z,10.15
2019-05-13T03:25:46.975Z,8.13
2019-05-13T03:28:15.692Z,11.85
2019-05-13T03:30:46.105Z,10.82
2019-05-13T03:33:18.820Z,9.90
2019-05-13T03:35:45.735Z,9.88
2019-05-13T03:38:12.807Z,8.78
2019-05-13T03:40:38.627Z,8.10
2019-05-13T03:43:07.207Z,7.12
2019-05-13T03:45:35.786Z,7.60
2019-05-13T03:48:04.681Z,7.62
2019-05-13T03:50:34.742Z,9.93
2019-05-13T03:53:03.019Z,7.40
2019-05-13T03:55:32.886Z,6.20
2019-05-13T03:58:02.571Z,5.72
2019-05-13T04:00:27.756Z,5.72
2019-05-13T04:02:56.351Z,6.05
2019-05-13T04:05:24.927Z,8.10
2019-05-13T04:07:53.494Z,7.05
2019-05-13T04:10:23.209Z,4.53
2019-05-13T04:12:52.701Z,4.10
2019-05-13T04:15:23.061Z,4.30
2019-05-13T04:17:48.667Z,6.22
2019-05-13T04:20:17.202Z,3.83
2019-05-13T04:22:45.751Z,3.80
2019-05-13T04:25:14.511Z,5.22
2019-05-13T04:27:43.211Z,4.62
2019-05-13T04:30:13.336Z,7.17
2019-05-13T04:32:43.883Z,2.30
2019-05-13T04:35:12.244Z,6.10
2019-05-13T04:37:38.356Z,4.08
2019-05-13T04:40:07.447Z,5.05
2019-05-13T04:42:36.279Z,5.65
2019-05-13T04:45:04.980Z,4.45
2019-05-13T04:47:33.600Z,7.60
2019-05-13T04:50:03.050Z,7.55
2019-05-13T04:52:32.990Z,6.78
2019-05-13T04:55:03.432Z,4.47
2019-05-13T04:57:29.042Z,3.08
2019-05-13T04:59:57.798Z,1.77
2019-05-13T05:02:48.980Z,2.80
2019-05-13T05:05:22.715Z,1.32
2019-05-13T05:08:02.894Z,1.32
2019-05-13T05:12:46.663Z,3.00
2019-05-13T05:15:32.421Z,1.42
2019-05-13T05:18:11.530Z,1.15
2019-05-13T05:20:42.899Z,2.30
2019-05-13T05:23:18.580Z,2.80
2019-05-13T05:26:01.393Z,1.70
2019-05-13T05:28:37.706Z,2.12
2019-05-13T05:31:18.082Z,1.72
2019-05-13T05:33:54.262Z,1.70
2019-05-13T05:36:37.158Z,2.42
2019-05-13T05:39:12.163Z,2.27
2019-05-13T05:41:39.079Z,3.87
2019-05-13T05:44:08.627Z,2.47
2019-05-13T05:46:38.909Z,2.75
2019-05-13T05:49:07.586Z,1.25
2019-05-13T05:51:36.322Z,2.75
2019-05-13T05:54:05.183Z,1.98
2019-05-13T05:56:33.882Z,1.25
2019-05-13T05:59:03.430Z,3.08
2019-05-13T06:01:34.032Z,0.93
2019-05-13T06:04:01.631Z,1.35
2019-05-13T06:06:32.710Z,4.12
2019-05-13T06:08:59.006Z,1.25
2019-05-13T06:11:27.665Z,2.70
2019-05-13T06:13:56.511Z,2.77
2019-05-13T06:16:25.200Z,2.55
2019-05-13T06:18:54.110Z,1.35
2019-05-13T06:21:22.866Z,4.20
2019-05-13T06:23:51.922Z,1.32
2019-05-13T06:26:23.628Z,4.47
2019-05-13T06:28:49.350Z,1.42
2019-05-13T06:31:18.582Z,2.27
2019-05-13T06:33:47.270Z,4.37
2019-05-13T06:36:15.934Z,5.45
2019-05-13T06:38:44.541Z,9.10
2019-05-13T06:41:14.767Z,7.80
2019-05-13T06:43:42.232Z,8.05
2019-05-13T06:46:12.372Z,3.20
2019-05-13T06:48:41.534Z,3.35
2019-05-13T06:51:08.502Z,2.17
2019-05-13T06:53:37.105Z,0.98
2019-05-13T06:56:06.090Z,2.40
2019-05-13T06:58:34.734Z,3.95
2019-05-13T07:01:04.241Z,4.47
2019-05-13T07:03:32.429Z,8.43
2019-05-13T07:06:01.801Z,2.90
2019-05-13T07:08:31.346Z,1.60
2019-05-13T07:10:58.033Z,2.37
2019-05-13T07:13:26.629Z,3.33
2019-05-13T07:15:55.227Z,3.12
2019-05-13T07:18:23.865Z,3.52
2019-05-13T07:20:53.189Z,4.03
2019-05-13T07:23:22.406Z,2.77
2019-05-13T07:25:52.256Z,2.08
2019-05-13T07:28:18.494Z,1.55
2019-05-13T07:30:47.241Z,1.90
2019-05-13T07:33:15.849Z,1.55
2019-05-13T07:35:45.830Z,3.12
2019-05-13T07:38:13.319Z,1.85
2019-05-13T07:40:42.080Z,5.15
2019-05-13T07:43:12.327Z,6.53
2019-05-13T07:45:42.082Z,10.15
2019-05-13T07:48:20.505Z,5.67
2019-05-13T07:50:51.643Z,2.50
2019-05-13T07:53:06.158Z,2.30
2019-05-13T07:55:35.049Z,2.33
2019-05-13T07:58:04.649Z,2.25
2019-05-13T08:00:33.617Z,2.60
2019-05-13T08:03:02.232Z,2.05
2019-05-13T08:05:31.486Z,0.98
2019-05-13T08:08:02.080Z,1.30
2019-05-13T08:10:28.712Z,3.83
2019-05-13T08:12:57.865Z,1.70
2019-05-13T08:15:26.510Z,1.95
2019-05-13T08:17:55.788Z,1.20
2019-05-13T08:20:24.488Z,2.75
2019-05-13T08:22:53.212Z,2.00
2019-05-13T08:25:22.338Z,2.85
2019-05-13T08:27:51.448Z,1.62
2019-05-13T08:30:22.543Z,1.80
2019-05-13T08:32:48.637Z,2.77
2019-05-13T08:35:17.213Z,1.40
2019-05-13T08:37:45.728Z,1.30
2019-05-13T08:40:14.377Z,2.10
2019-05-13T08:42:43.026Z,0.98
2019-05-13T08:45:12.195Z,1.60
2019-05-13T08:47:41.969Z,3.60
2019-05-13T08:50:11.615Z,2.00
2019-05-13T08:52:37.636Z,2.20
2019-05-13T08:55:06.364Z,1.57
2019-05-13T08:57:34.911Z,1.55
2019-05-13T09:00:05.493Z,2.08
2019-05-13T09:02:32.473Z,2.30
2019-05-13T09:05:02.355Z,2.58
2019-05-13T09:07:31.867Z,1.57
2019-05-13T09:09:58.412Z,1.77
2019-05-13T09:12:31.978Z,3.70
2019-05-13T09:14:55.628Z,3.62
2019-05-13T09:17:24.153Z,3.12
2019-05-13T09:19:53.072Z,1.10
2019-05-13T09:22:22.280Z,1.80
2019-05-13T09:24:53.031Z,1.37
2019-05-13T09:27:19.400Z,0.93
2019-05-13T09:29:48.337Z,2.80
2019-05-13T09:32:17.004Z,3.77
2019-05-13T09:34:45.580Z,5.90
2019-05-13T09:37:14.244Z,1.55
2019-05-13T09:39:42.778Z,1.60
2019-05-13T09:42:12.634Z,1.27
2019-05-13T09:44:41.923Z,3.95
2019-05-13T09:47:08.558Z,1.40
2019-05-13T09:49:37.404Z,0.95
2019-05-13T09:52:06.020Z,2.75
2019-05-13T09:54:34.586Z,1.70
2019-05-13T09:57:03.116Z,1.00
2019-05-13T09:59:32.189Z,1.95
2019-05-13T10:02:03.013Z,2.10
2019-05-13T10:04:31.385Z,1.30
2019-05-13T10:06:58.352Z,1.30
2019-05-13T10:09:26.962Z,1.00
2019-05-13T10:11:55.492Z,2.90
2019-05-13T10:14:24.784Z,2.05
2019-05-13T10:16:53.643Z,1.02
2019-05-13T10:19:22.164Z,2.35
2019-05-13T10:21:52.465Z,1.85
2019-05-13T10:24:22.039Z,3.95
2019-05-13T10:26:51.356Z,1.50
2019-05-13T10:29:17.412Z,2.98
2019-05-13T10:31:46.016Z,1.10
2019-05-13T10:34:14.660Z,1.50
2019-05-13T10:36:43.600Z,1.72
2019-05-13T10:39:12.387Z,0.98
2019-05-13T10:41:42.340Z,1.22
2019-05-13T10:44:12.077Z,1.47
2019-05-13T10:46:38.207Z,1.17
2019-05-13T10:49:06.828Z,2.75
2019-05-13T10:51:35.388Z,1.17
2019-05-13T10:54:04.995Z,1.22
2019-05-13T10:56:33.640Z,1.67
2019-05-13T10:59:03.169Z,1.07
2019-05-13T11:01:32.740Z,2.00
2019-05-13T11:04:02.601Z,4.45
2019-05-13T11:06:28.664Z,5.35
2019-05-13T11:08:57.324Z,2.00
2019-05-13T11:11:25.979Z,2.08
2019-05-13T11:13:59.475Z,1.98
2019-05-13T11:16:24.016Z,3.08
2019-05-13T11:18:52.791Z,3.85
2019-05-13T11:21:22.387Z,3.05
2019-05-13T11:23:51.885Z,2.05
2019-05-13T11:26:18.639Z,1.72
2019-05-13T11:28:47.139Z,2.72
2019-05-13T11:31:16.183Z,4.55
2019-05-13T11:33:44.812Z,2.40
2019-05-13T11:36:18.970Z,2.42
2019-05-13T11:38:43.325Z,1.87
2019-05-13T11:41:11.778Z,2.60
2019-05-13T11:43:41.358Z,1.70
2019-05-13T11:46:08.019Z,2.58
2019-05-13T11:48:36.583Z,1.80
2019-05-13T11:51:05.179Z,1.25
2019-05-13T11:53:37.449Z,2.87
2019-05-13T11:56:03.570Z,2.52
2019-05-13T11:58:32.467Z,2.33
2019-05-13T12:01:02.657Z,1.90
2019-05-13T12:03:32.165Z,1.62
2019-05-13T12:05:57.880Z,2.62
2019-05-13T12:08:26.686Z,1.55
2019-05-13T12:10:55.514Z,2.58
2019-05-13T12:13:25.562Z,1.42
2019-05-13T12:15:54.814Z,1.20
2019-05-13T12:18:23.924Z,2.50
2019-05-13T12:20:54.045Z,2.17
2019-05-13T12:23:20.857Z,1.37
2019-05-13T12:25:52.546Z,1.80
2019-05-13T12:28:18.633Z,1.25
2019-05-13T12:30:47.316Z,2.83
2019-05-13T12:33:16.198Z,1.52
2019-05-13T12:35:44.993Z,3.05
2019-05-13T12:38:14.019Z,2.55
2019-05-13T12:40:43.157Z,1.55
2019-05-13T12:43:13.319Z,1.30
2019-05-13T12:45:43.192Z,1.50
2019-05-13T12:48:09.273Z,1.22
2019-05-13T12:50:38.154Z,1.75
2019-05-13T12:53:06.933Z,2.20
2019-05-13T12:55:35.639Z,3.12
2019-05-13T12:58:04.954Z,2.60
2019-05-13T13:00:33.654Z,1.98
2019-05-13T13:03:02.361Z,3.02
2019-05-13T13:05:34.408Z,1.85
2019-05-13T13:08:18.429Z,1.95
2019-05-13T13:10:28.845Z,4.10
2019-05-13T13:12:57.917Z,1.98
2019-05-13T13:15:40.990Z,1.98
2019-05-13T13:17:55.298Z,2.00
2019-05-13T13:20:24.237Z,1.47
2019-05-13T13:22:52.613Z,2.35
2019-05-13T13:25:23.839Z,9.08
2019-05-13T13:28:11.392Z,7.67
2019-05-13T13:30:18.816Z,10.63
2019-05-13T13:32:47.535Z,3.85
2019-05-13T13:35:16.182Z,3.80
2019-05-13T13:37:45.887Z,2.33
2019-05-13T13:40:13.602Z,1.98
2019-05-13T13:42:43.384Z,1.62
2019-05-13T13:45:11.898Z,2.00
2019-05-13T13:47:44.994Z,2.40
2019-05-13T13:50:11.180Z,1.40
2019-05-13T13:52:38.124Z,1.70
2019-05-13T13:55:08.898Z,1.72
2019-05-13T13:57:35.614Z,1.47
2019-05-13T14:00:34.407Z,3.50
2019-05-13T14:02:37.023Z,3.22
2019-05-13T14:05:05.621Z,3.12
2019-05-13T14:07:37.847Z,1.45
2019-05-13T14:10:06.451Z,2.45
2019-05-13T14:12:28.959Z,2.47
2019-05-13T14:14:57.731Z,3.10
2019-05-13T14:17:26.363Z,4.33
2019-05-13T14:19:54.981Z,1.80
2019-05-13T14:22:23.594Z,1.75
2019-05-13T14:24:52.587Z,1.22
2019-05-13T14:27:22.413Z,2.35
2019-05-13T14:29:52.500Z,1.15
2019-05-13T14:32:18.586Z,4.37
2019-05-13T14:34:52.634Z,3.25
2019-05-13T14:37:22.329Z,2.75
2019-05-13T14:39:49.473Z,1.52
2019-05-13T14:42:18.114Z,2.92
2019-05-13T14:44:46.751Z,1.90
2019-05-13T14:47:15.402Z,1.72
2019-05-13T14:49:44.066Z,4.73
2019-05-13T14:52:12.667Z,2.77
2019-05-13T14:54:42.025Z,7.12
2019-05-13T14:57:12.591Z,2.05
2019-05-13T14:59:41.305Z,2.58
2019-05-13T15:02:07.634Z,2.25
2019-05-13T15:04:36.222Z,3.70
2019-05-13T15:07:05.036Z,2.98
2019-05-13T15:09:33.686Z,2.30
2019-05-13T15:12:02.537Z,2.35
2019-05-13T15:14:31.888Z,3.45
2019-05-13T15:17:05.905Z,3.80
2019-05-13T15:19:28.482Z,1.37
2019-05-13T15:21:57.074Z,2.67
2019-05-13T15:24:26.183Z,1.95
2019-05-13T15:26:54.862Z,1.67
2019-05-13T15:29:23.437Z,1.98
2019-05-13T15:31:52.045Z,4.67
2019-05-13T15:34:20.713Z,2.92
2019-05-13T15:36:51.347Z,2.95
2019-05-13T15:39:17.930Z,1.77
2019-05-13T15:41:46.706Z,4.50
2019-05-13T15:44:15.325Z,4.70
2019-05-13T15:46:44.218Z,4.78
2019-05-13T15:49:12.899Z,7.37
2019-05-13T15:51:42.365Z,4.92
2019-05-13T15:54:15.374Z,4.00
2019-05-13T15:56:39.521Z,3.22
2019-05-13T15:59:08.899Z,6.65
2019-05-13T16:01:37.070Z,4.90
2019-05-13T16:04:05.717Z,2.98
2019-05-13T16:06:34.425Z,4.45
2019-05-13T16:09:03.121Z,3.52
2019-05-13T16:11:32.564Z,2.10
2019-05-13T16:14:02.112Z,2.50
2019-05-13T16:16:31.917Z,3.33
2019-05-13T16:18:57.909Z,4.40
2019-05-13T16:21:26.645Z,3.40
2019-05-13T16:23:55.435Z,4.62
2019-05-13T16:26:27.114Z,2.02
2019-05-13T16:28:52.915Z,8.63
2019-05-13T16:31:22.077Z,6.37
2019-05-13T16:33:52.247Z,4.42
2019-05-13T16:36:22.161Z,3.08
2019-05-13T16:38:48.123Z,4.60
2019-05-13T16:41:16.938Z,2.52
2019-05-13T16:43:45.675Z,4.58
2019-05-13T16:46:14.598Z,2.73
2019-05-13T16:48:43.754Z,2.00
2019-05-13T16:51:13.358Z,4.15
2019-05-13T16:54:01.628Z,4.65
2019-05-13T16:56:33.231Z,2.22
2019-05-13T16:58:58.848Z,4.05
2019-05-13T17:01:27.572Z,3.27
2019-05-13T17:03:56.696Z,3.20
2019-05-13T17:06:25.440Z,3.87
2019-05-13T17:08:54.236Z,2.27
2019-05-13T17:11:22.935Z,3.75
2019-05-13T17:13:51.595Z,2.45
2019-05-13T17:16:21.313Z,2.87
2019-05-13T17:18:49.020Z,5.30
2019-05-13T17:21:17.679Z,4.05
2019-05-13T17:23:46.403Z,4.05
2019-05-13T17:26:14.983Z,3.95
2019-05-13T17:28:43.807Z,3.08
2019-05-13T17:31:12.758Z,3.22
2019-05-13T17:33:41.611Z,2.85
2019-05-13T17:36:12.288Z,3.35
2019-05-13T17:38:39.223Z,3.85
2019-05-13T17:41:07.959Z,2.17
2019-05-13T17:43:36.819Z,1.50
2019-05-13T17:46:05.623Z,1.67
2019-05-13T17:48:34.891Z,2.30
2019-05-13T17:51:03.509Z,2.02
2019-05-13T17:53:32.651Z,3.50
2019-05-13T17:56:03.903Z,3.05
2019-05-13T17:58:33.328Z,5.33
2019-05-13T18:01:02.083Z,2.98
2019-05-13T18:03:32.040Z,2.95
2019-05-13T18:06:02.031Z,3.45
2019-05-13T18:08:28.952Z,2.30
2019-05-13T18:10:57.592Z,4.72
2019-05-13T18:13:26.339Z,2.30
2019-05-13T18:15:54.980Z,3.45
2019-05-13T18:18:38.634Z,3.47
2019-05-13T18:20:52.466Z,3.52
2019-05-13T18:23:21.244Z,3.63
2019-05-13T18:25:51.439Z,4.58
2019-05-13T18:28:30.206Z,3.83
2019-05-13T18:30:47.327Z,2.83
2019-05-13T18:33:15.911Z,3.70
2019-05-13T18:35:44.541Z,2.60
2019-05-13T18:38:13.398Z,3.62
2019-05-13T18:40:42.307Z,2.58
2019-05-13T18:43:11.005Z,4.17
2019-05-13T18:45:41.831Z,4.62
2019-05-13T18:48:08.363Z,2.95
2019-05-13T18:50:37.223Z,2.90
2019-05-13T18:53:05.949Z,3.40
2019-05-13T18:55:34.588Z,2.40
2019-05-13T18:58:03.236Z,3.58
2019-05-13T19:00:32.293Z,3.42
2019-05-13T19:03:01.323Z,4.10
2019-05-13T19:05:31.580Z,3.95
2019-05-13T19:07:58.651Z,4.70
2019-05-13T19:10:27.311Z,3.20
2019-05-13T19:12:57.758Z,4.97
2019-05-13T19:15:24.815Z,7.30
2019-05-13T19:17:53.383Z,4.47
2019-05-13T19:20:22.222Z,4.08
2019-05-13T19:22:51.804Z,4.50
2019-05-13T19:25:19.479Z,5.37
2019-05-13T19:27:48.079Z,4.22
2019-05-13T19:30:16.756Z,5.03
2019-05-13T19:32:45.405Z,4.62
2019-05-13T19:35:14.212Z,3.58
2019-05-13T19:37:42.818Z,4.60
2019-05-13T19:40:13.032Z,4.70
2019-05-13T19:42:41.810Z,3.42
2019-05-13T19:45:09.174Z,4.40
2019-05-13T19:47:37.728Z,4.15
2019-05-13T19:50:06.449Z,2.67
2019-05-13T19:52:34.963Z,4.45
2019-05-13T19:55:03.463Z,3.12
2019-05-13T19:57:32.072Z,3.33
2019-05-13T20:00:01.358Z,2.70
2019-05-13T20:02:31.447Z,3.75
2019-05-13T20:04:58.026Z,4.00
2019-05-13T20:07:26.782Z,3.00
2019-05-13T20:09:55.439Z,3.83
2019-05-13T20:12:24.366Z,4.25
2019-05-13T20:14:53.003Z,3.20
2019-05-13T20:17:21.613Z,4.62
2019-05-13T20:19:53.161Z,2.85
2019-05-13T20:22:18.855Z,5.37
2019-05-13T20:24:47.530Z,2.55
2019-05-13T20:27:16.086Z,4.95
2019-05-13T20:29:44.986Z,2.02
2019-05-13T20:32:13.582Z,4.00
2019-05-13T20:34:42.578Z,5.17
2019-05-13T20:37:12.385Z,4.90
2019-05-13T20:39:42.292Z,3.25
2019-05-13T20:42:08.634Z,2.72
2019-05-13T20:44:37.251Z,4.30
2019-05-13T20:47:06.014Z,2.20
2019-05-13T20:49:34.577Z,4.33
2019-05-13T20:52:03.234Z,2.67
2019-05-13T20:54:31.813Z,2.80
2019-05-13T20:57:01.973Z,2.35
2019-05-13T20:59:32.018Z,2.58
2019-05-13T21:02:02.358Z,2.30
2019-05-13T21:04:32.247Z,2.20
2019-05-13T21:06:59.223Z,2.17
2019-05-13T21:09:27.764Z,1.98
2019-05-13T21:11:56.623Z,2.42
2019-05-13T21:14:25.115Z,5.62
2019-05-13T21:16:53.955Z,1.72
2019-05-13T21:19:22.419Z,1.75
2019-05-13T21:21:51.173Z,1.67
2019-05-13T21:24:21.374Z,2.22
2019-05-13T21:26:48.400Z,3.25
2019-05-13T21:29:16.966Z,2.52
2019-05-13T21:31:45.546Z,2.10
2019-05-13T21:34:14.098Z,2.15
2019-05-13T21:36:42.630Z,2.42
2019-05-13T21:39:12.418Z,2.70
2019-05-13T21:41:41.349Z,1.80
2019-05-13T21:44:08.498Z,2.05
2019-05-13T21:46:37.365Z,2.27
2019-05-13T21:49:05.985Z,1.92
2019-05-13T21:51:34.642Z,3.67
2019-05-13T21:54:03.296Z,1.92
2019-05-13T21:56:32.004Z,3.27
2019-05-13T21:59:01.505Z,1.77
2019-05-13T22:01:31.439Z,2.10
2019-05-13T22:03:58.133Z,2.33
2019-05-13T22:06:26.729Z,2.67
2019-05-13T22:08:55.393Z,3.37
2019-05-13T22:11:24.042Z,4.05
2019-05-13T22:13:52.633Z,3.25
2019-05-13T22:16:21.551Z,5.17
2019-05-13T22:18:52.426Z,3.27
2019-05-13T22:21:19.516Z,2.83
2019-05-13T22:23:48.279Z,3.37
2019-05-13T22:26:17.152Z,3.98
2019-05-13T22:28:45.762Z,4.50
2019-05-13T22:31:14.988Z,3.37
2019-05-13T22:33:45.336Z,4.25
2019-05-13T22:36:14.765Z,7.87
2019-05-13T22:38:43.676Z,4.90
2019-05-13T22:41:12.769Z,4.55
2019-05-13T22:43:54.987Z,5.53
2019-05-13T22:46:13.874Z,5.80
2019-05-13T22:48:41.946Z,7.00
2019-05-13T22:51:11.638Z,6.80
2019-05-13T22:53:38.472Z,6.85
2019-05-13T22:56:07.371Z,5.70
2019-05-13T22:58:36.284Z,7.28
2019-05-13T23:01:06.024Z,5.10
2019-05-13T23:03:34.933Z,6.80
2019-05-13T23:06:03.908Z,5.65
2019-05-13T23:08:32.996Z,5.30
2019-05-13T23:11:02.376Z,4.95
2019-05-13T23:13:31.519Z,5.87
2019-05-13T23:16:02.426Z,5.30
2019-05-13T23:18:31.695Z,6.37
2019-05-13T23:20:59.125Z,8.90
2019-05-13T23:23:29.640Z,6.33
2019-05-13T23:25:58.745Z,4.97
2019-05-13T23:28:28.116Z,5.15
2019-05-13T23:30:57.465Z,5.95
2019-05-13T23:33:26.448Z,7.70
2019-05-13T23:35:55.521Z,6.37
2019-05-13T23:38:24.449Z,5.05
2019-05-13T23:40:53.587Z,5.25
2019-05-13T23:43:23.252Z,5.37
2019-05-13T23:45:52.365Z,7.63
2019-05-13T23:48:21.731Z,5.87
2019-05-13T23:50:52.195Z,3.60
2019-05-13T23:53:21.654Z,6.30
2019-05-13T23:55:48.328Z,3.72
2019-05-13T23:58:17.712Z,2.60
